createdAt,value
2023-02-02T00:00:38.331Z,100.00
2023-02-02T00:06:01.173Z,100.00
2023-02-02T00:11:04.431Z,100.00
2023-02-02T00:16:26.025Z,100.00
2023-02-02T00:21:29.188Z,100.00
2023-02-02T00:26:32.141Z,100.00
2023-02-02T00:31:35.025Z,100.00
2023-02-02T00:36:37.899Z,100.00
2023-02-02T00:41:40.575Z,100.00
2023-02-02T00:46:43.328Z,100.00
2023-02-02T00:51:45.982Z,100.00
2023-02-02T00:56:48.695Z,100.00
2023-02-02T01:01:51.507Z,100.00
2023-02-02T01:06:54.260Z,100.00
2023-02-02T01:11:57.421Z,100.00
2023-02-02T01:17:00.139Z,100.00
2023-02-02T01:22:03.637Z,100.00
2023-02-02T01:27:06.607Z,100.00
2023-02-02T01:32:09.321Z,100.00
2023-02-02T01:37:11.987Z,100.00
2023-02-02T01:42:23.349Z,100.00
2023-02-02T01:47:29.908Z,100.00
2023-02-02T01:52:34.733Z,100.00
2023-02-02T01:57:45.425Z,100.00
2023-02-02T02:02:49.376Z,100.00
2023-02-02T02:07:56.473Z,100.00
2023-02-02T02:12:59.355Z,100.00
2023-02-02T02:18:20.419Z,100.00
2023-02-02T02:24:09.141Z,100.00
2023-02-02T02:29:53.563Z,100.00
2023-02-02T02:35:17.561Z,100.00
2023-02-02T02:40:35.312Z,100.00
2023-02-02T02:45:39.247Z,100.00
2023-02-02T02:50:42.144Z,100.00
2023-02-02T02:56:09.381Z,100.00
2023-02-02T03:01:21.972Z,100.00
2023-02-02T03:06:47.869Z,100.00
2023-02-02T03:11:50.618Z,100.00
2023-02-02T03:16:53.804Z,100.00
2023-02-02T03:21:56.559Z,100.00
2023-02-02T03:26:59.263Z,100.00
2023-02-02T03:32:02.015Z,100.00
2023-02-02T03:37:04.720Z,100.00
2023-02-02T03:42:07.405Z,100.00
2023-02-02T03:47:10.060Z,100.00
2023-02-02T03:52:12.800Z,100.00
2023-02-02T03:57:15.505Z,100.00
2023-02-02T04:02:18.181Z,100.00
2023-02-02T04:07:20.997Z,100.00
2023-02-02T04:12:23.781Z,100.00
2023-02-02T04:17:26.495Z,100.00
2023-02-02T04:22:29.196Z,100.00
2023-02-02T04:27:34.105Z,100.00
2023-02-02T04:32:36.916Z,100.00
2023-02-02T04:37:39.591Z,100.00
2023-02-02T04:42:42.245Z,100.00
2023-02-02T04:47:44.913Z,100.00
2023-02-02T04:52:47.641Z,100.00
2023-02-02T04:57:50.753Z,100.00
2023-02-02T05:02:53.464Z,100.00
2023-02-02T05:07:56.166Z,100.00
2023-02-02T05:12:58.874Z,100.00
2023-02-02T05:18:01.759Z,100.00
2023-02-02T05:23:04.467Z,100.00
2023-02-02T05:28:07.145Z,100.00
2023-02-02T05:33:10.460Z,100.00
2023-02-02T05:38:13.681Z,100.00
2023-02-02T05:43:16.399Z,100.00
2023-02-02T05:48:19.453Z,100.00
2023-02-02T05:53:22.156Z,100.00
2023-02-02T05:58:25.943Z,100.00
2023-02-02T06:03:28.804Z,100.00
2023-02-02T06:08:31.616Z,100.00
2023-02-02T06:13:35.535Z,100.00
2023-02-02T06:18:38.306Z,100.00
2023-02-02T06:23:46.141Z,100.00
2023-02-02T06:28:51.386Z,100.00
2023-02-02T06:33:57.085Z,100.00
2023-02-02T06:39:00.113Z,100.00
2023-02-02T06:44:03.373Z,100.00
2023-02-02T06:49:06.021Z,100.00
2023-02-02T06:54:08.681Z,100.00
2023-02-02T06:59:11.354Z,100.00
2023-02-02T07:04:14.095Z,100.00
2023-02-02T07:09:16.898Z,100.00
2023-02-02T07:14:19.611Z,100.00
2023-02-02T07:19:22.312Z,100.00
2023-02-02T07:24:25.028Z,100.00
2023-02-02T07:29:27.769Z,100.00
2023-02-02T07:34:30.434Z,100.00
2023-02-02T07:39:33.096Z,100.00
2023-02-02T07:44:35.792Z,100.00
2023-02-02T07:49:38.491Z,100.00
2023-02-02T07:54:41.598Z,100.00
2023-02-02T07:59:44.293Z,100.00
2023-02-02T08:04:47.715Z,100.00
2023-02-02T08:09:51.841Z,100.00
2023-02-02T08:14:54.546Z,100.00
2023-02-02T08:19:57.356Z,100.00
2023-02-02T08:25:00.038Z,100.00
2023-02-02T08:30:02.759Z,100.00
2023-02-02T08:35:06.179Z,100.00
2023-02-02T08:40:10.116Z,100.00
2023-02-02T08:46:03.132Z,100.00
2023-02-02T08:50:36.025Z,100.00
2023-02-02T08:55:38.711Z,100.00
2023-02-02T09:00:41.617Z,100.00
2023-02-02T09:05:44.573Z,100.00
2023-02-02T09:10:47.261Z,100.00
2023-02-02T09:15:49.963Z,100.00
2023-02-02T09:20:52.772Z,100.00
2023-02-02T09:25:55.575Z,100.00
2023-02-02T09:31:01.564Z,100.00
2023-02-02T09:36:12.138Z,100.00
2023-02-02T09:41:39.741Z,100.00
2023-02-02T09:47:04.640Z,100.00
2023-02-02T09:52:14.453Z,100.00
2023-02-02T09:57:22.592Z,100.00
2023-02-02T10:02:33.450Z,100.00
2023-02-02T10:07:41.459Z,100.00
2023-02-02T10:12:56.242Z,99.77
2023-02-02T10:18:08.859Z,99.54
2023-02-02T10:23:15.651Z,99.31
2023-02-02T10:28:20.514Z,99.43
2023-02-02T10:34:02.527Z,98.29
2023-02-02T10:39:36.059Z,98.24
2023-02-02T10:44:51.134Z,98.14
2023-02-02T10:50:19.273Z,97.64
2023-02-02T10:55:32.987Z,96.91
2023-02-02T11:00:52.829Z,96.99
2023-02-02T11:06:18.578Z,95.97
2023-02-02T11:11:25.083Z,95.27
2023-02-02T11:16:42.227Z,93.59
2023-02-02T11:21:48.774Z,92.75
2023-02-02T11:27:17.773Z,91.39
2023-02-02T11:32:33.111Z,91.24
2023-02-02T11:37:52.237Z,91.53
2023-02-02T11:43:01.414Z,91.46
2023-02-02T11:48:22.417Z,91.39
2023-02-02T11:53:35.972Z,91.58
2023-02-02T11:58:56.617Z,91.03
2023-02-02T12:04:02.185Z,88.57
2023-02-02T12:09:14.672Z,85.25
2023-02-02T12:14:37.099Z,84.47
2023-02-02T12:20:06.342Z,84.77
2023-02-02T12:25:15.054Z,85.06
2023-02-02T12:30:41.512Z,78.91
2023-02-02T12:35:52.431Z,68.29
2023-02-02T12:41:20.945Z,62.35
2023-02-02T12:46:42.165Z,58.86
2023-02-02T12:51:57.490Z,62.38
2023-02-02T12:57:24.221Z,65.51
2023-02-02T13:02:57.979Z,65.30
2023-02-02T13:08:11.989Z,64.68
2023-02-02T13:13:14.641Z,65.95
2023-02-02T13:18:23.578Z,66.52
2023-02-02T13:23:35.882Z,69.04
2023-02-02T13:28:45.453Z,72.37
2023-02-02T13:33:57.283Z,74.94
2023-02-02T13:39:03.452Z,76.46
2023-02-02T13:44:18.047Z,76.77
2023-02-02T13:49:29.025Z,77.90
2023-02-02T13:55:04.899Z,78.88
2023-02-02T14:00:16.716Z,79.38
2023-02-02T14:05:41.527Z,79.52
2023-02-02T14:10:53.369Z,79.70
2023-02-02T14:15:58.075Z,80.19
2023-02-02T14:21:00.819Z,81.76
2023-02-02T14:26:09.425Z,82.78
2023-02-02T14:31:29.740Z,83.83
2023-02-02T14:36:32.855Z,84.77
2023-02-02T14:42:16.326Z,85.21
2023-02-02T14:47:46.972Z,86.04
2023-02-02T14:52:59.957Z,86.66
2023-02-02T14:58:06.179Z,86.86
2023-02-02T15:03:37.066Z,86.58
2023-02-02T15:08:39.871Z,87.40
2023-02-02T15:13:48.591Z,87.85
2023-02-02T15:19:04.382Z,88.20
2023-02-02T15:24:18.798Z,88.45
2023-02-02T15:29:38.524Z,88.60
2023-02-02T15:34:45.469Z,89.07
2023-02-02T15:39:52.698Z,89.25
2023-02-02T15:44:55.399Z,89.76
2023-02-02T15:49:59.613Z,89.97
2023-02-02T15:55:02.738Z,90.18
2023-02-02T16:00:44.327Z,90.54
2023-02-02T16:05:57.003Z,91.04
2023-02-02T16:11:14.921Z,91.28
2023-02-02T16:16:26.780Z,91.51
2023-02-02T16:21:31.074Z,91.85
2023-02-02T16:26:35.568Z,92.13
2023-02-02T16:31:38.542Z,92.17
2023-02-02T16:36:41.606Z,92.49
2023-02-02T16:41:47.472Z,92.73
2023-02-02T16:46:50.624Z,92.84
2023-02-02T16:52:18.345Z,92.96
2023-02-02T16:57:34.365Z,93.13
2023-02-02T17:02:40.811Z,92.68
2023-02-02T17:07:51.549Z,93.09
2023-02-02T17:12:54.582Z,93.59
2023-02-02T17:17:57.895Z,93.49
2023-02-02T17:23:09.908Z,93.93
2023-02-02T17:28:16.790Z,93.91
2023-02-02T17:33:19.564Z,93.92
2023-02-02T17:38:24.142Z,94.03
2023-02-02T17:43:27.159Z,94.27
2023-02-02T17:48:29.850Z,94.47
2023-02-02T17:53:33.571Z,94.44
2023-02-02T17:58:36.388Z,94.44
2023-02-02T18:03:41.553Z,94.75
2023-02-02T18:08:45.618Z,95.26
2023-02-02T18:13:48.410Z,95.37
2023-02-02T18:18:51.119Z,95.67
2023-02-02T18:23:53.894Z,95.76
2023-02-02T18:28:56.597Z,96.02
2023-02-02T18:33:59.276Z,96.38
2023-02-02T18:39:01.992Z,96.45
2023-02-02T18:44:04.770Z,96.46
2023-02-02T18:49:07.443Z,96.63
2023-02-02T18:54:12.904Z,96.82
2023-02-02T18:59:15.645Z,96.87
2023-02-02T19:04:18.374Z,97.08
2023-02-02T19:09:22.463Z,97.05
2023-02-02T19:14:34.522Z,97.10
2023-02-02T19:19:39.481Z,96.91
2023-02-02T19:24:43.162Z,97.06
2023-02-02T19:29:47.597Z,97.11
2023-02-02T19:34:55.381Z,97.31
2023-02-02T19:40:08.240Z,96.95
2023-02-02T19:45:26.977Z,97.00
2023-02-02T19:50:38.849Z,96.97
2023-02-02T19:55:43.998Z,97.38
2023-02-02T20:00:49.146Z,97.10
2023-02-02T20:05:53.693Z,96.81
2023-02-02T20:11:02.700Z,96.68
2023-02-02T20:16:06.627Z,96.27
2023-02-02T20:21:38.863Z,96.46
2023-02-02T20:26:41.562Z,96.47
2023-02-02T20:31:46.093Z,96.54
2023-02-02T20:36:49.641Z,96.97
2023-02-02T20:41:54.837Z,97.12
2023-02-02T20:46:58.591Z,96.97
2023-02-02T20:52:03.744Z,97.01
2023-02-02T20:57:06.860Z,96.84
2023-02-02T21:02:18.943Z,96.94
2023-02-02T21:07:22.305Z,97.09
2023-02-02T21:12:25.781Z,96.92
2023-02-02T21:17:28.515Z,96.57
2023-02-02T21:22:31.322Z,96.92
2023-02-02T21:27:34.738Z,96.67
2023-02-02T21:32:37.637Z,96.18
2023-02-02T21:37:40.597Z,95.80
2023-02-02T21:42:48.721Z,95.66
2023-02-02T21:48:22.599Z,95.45
2023-02-02T21:53:27.524Z,95.39
2023-02-02T21:58:38.412Z,95.56
2023-02-02T22:03:46.802Z,95.06
2023-02-02T22:08:50.874Z,95.34
2023-02-02T22:13:54.111Z,95.20
2023-02-02T22:18:56.820Z,94.64
2023-02-02T22:24:00.483Z,95.17
2023-02-02T22:29:12.409Z,95.22
2023-02-02T22:34:15.158Z,95.02
2023-02-02T22:39:17.836Z,94.08
2023-02-02T22:44:20.758Z,94.14
2023-02-02T22:49:23.457Z,93.95
2023-02-02T22:54:26.185Z,93.86
2023-02-02T22:59:28.879Z,94.04
2023-02-02T23:04:31.656Z,94.00
2023-02-02T23:09:34.347Z,93.17
2023-02-02T23:14:37.072Z,92.65
2023-02-02T23:19:39.899Z,92.43
2023-02-02T23:24:42.864Z,92.40
2023-02-02T23:29:45.565Z,92.13
2023-02-02T23:34:48.243Z,92.17
2023-02-02T23:39:50.914Z,92.08
2023-02-02T23:44:53.696Z,92.49
2023-02-02T23:49:56.445Z,92.42
2023-02-02T23:55:01.404Z,92.09
